sensor_id;sensor_type;location;lat;lon;timestamp;noise_LAeq;noise_LA_min;noise_LA_max;noise_LA01;noise_LA95
75249;Laerm;63845;55.688;37.578;2022-10-16T00:01:19;56.35;49.25;68.48;;
75249;Laerm;63845;55.688;37.578;2022-10-16T00:03:45;56.67;50.79;69.22;;
75249;Laerm;63845;55.688;37.578;2022-10-16T00:06:13;57.33;49.82;69.27;;
75249;Laerm;63845;55.688;37.578;2022-10-16T00:08:39;58.13;53.45;68.76;;
75249;Laerm;63845;55.688;37.578;2022-10-16T00:13:45;60.22;52.68;69.59;;
75249;Laerm;63845;55.688;37.578;2022-10-16T00:16:12;57.98;50.61;70.62;;
75249;Laerm;63845;55.688;37.578;2022-10-16T00:18:38;58.47;49.86;78.97;;
75249;Laerm;63845;55.688;37.578;2022-10-16T00:21:13;58.88;52.05;79.16;;
75249;Laerm;63845;55.688;37.578;2022-10-16T00:24:06;57.76;51.70;67.90;;
75249;Laerm;63845;55.688;37.578;2022-10-16T00:26:35;58.30;52.56;71.52;;
75249;Laerm;63845;55.688;37.578;2022-10-16T00:29:01;58.18;52.01;68.72;;
75249;Laerm;63845;55.688;37.578;2022-10-16T00:31:28;58.73;52.24;66.76;;
75249;Laerm;63845;55.688;37.578;2022-10-16T00:33:54;58.27;52.53;76.35;;
75249;Laerm;63845;55.688;37.578;2022-10-16T00:36:21;58.33;52.05;67.00;;
75249;Laerm;63845;55.688;37.578;2022-10-16T00:38:50;59.41;53.10;70.34;;
75249;Laerm;63845;55.688;37.578;2022-10-16T00:41:18;58.08;51.67;69.73;;
75249;Laerm;63845;55.688;37.578;2022-10-16T00:43:49;57.87;50.15;68.72;;
75249;Laerm;63845;55.688;37.578;2022-10-16T00:46:19;57.66;51.34;65.25;;
75249;Laerm;63845;55.688;37.578;2022-10-16T00:48:50;57.76;51.25;72.08;;
75249;Laerm;63845;55.688;37.578;2022-10-16T00:51:19;57.79;52.68;65.54;;
75249;Laerm;63845;55.688;37.578;2022-10-16T00:53:48;58.44;48.64;72.59;;
75249;Laerm;63845;55.688;37.578;2022-10-16T00:56:13;57.91;51.98;74.83;;
75249;Laerm;63845;55.688;37.578;2022-10-16T00:58:39;58.34;51.82;70.59;;
75249;Laerm;63845;55.688;37.578;2022-10-16T01:01:04;57.47;48.39;64.90;;
75249;Laerm;63845;55.688;37.578;2022-10-16T01:03:36;57.52;51.64;67.63;;
75249;Laerm;63845;55.688;37.578;2022-10-16T01:06:09;56.03;50.86;67.87;;
75249;Laerm;63845;55.688;37.578;2022-10-16T01:17:22;58.23;52.17;67.06;;
75249;Laerm;63845;55.688;37.578;2022-10-16T01:20:24;58.94;52.67;64.32;;
75249;Laerm;63845;55.688;37.578;2022-10-16T01:25:48;56.44;48.76;64.85;;
75249;Laerm;63845;55.688;37.578;2022-10-16T01:28:16;55.59;49.14;61.70;;
75249;Laerm;63845;55.688;37.578;2022-10-16T01:30:44;55.96;48.49;62.17;;
75249;Laerm;63845;55.688;37.578;2022-10-16T01:33:22;55.48;49.77;62.82;;
75249;Laerm;63845;55.688;37.578;2022-10-16T01:35:55;54.64;48.58;61.65;;
75249;Laerm;63845;55.688;37.578;2022-10-16T01:38:46;56.28;49.65;62.04;;
75249;Laerm;63845;55.688;37.578;2022-10-16T01:41:24;56.50;49.49;63.40;;
75249;Laerm;63845;55.688;37.578;2022-10-16T01:46:28;56.92;49.32;62.95;;
75249;Laerm;63845;55.688;37.578;2022-10-16T01:48:56;56.45;49.22;66.37;;
75249;Laerm;63845;55.688;37.578;2022-10-16T01:51:23;54.07;48.57;61.95;;
75249;Laerm;63845;55.688;37.578;2022-10-16T01:53:53;55.68;49.47;67.76;;
75249;Laerm;63845;55.688;37.578;2022-10-16T01:56:20;58.95;51.45;64.60;;
75249;Laerm;63845;55.688;37.578;2022-10-16T01:59:00;56.75;49.20;69.06;;
75249;Laerm;63845;55.688;37.578;2022-10-16T02:01:30;60.80;51.99;71.42;;
75249;Laerm;63845;55.688;37.578;2022-10-16T02:04:00;53.94;48.78;64.07;;
75249;Laerm;63845;55.688;37.578;2022-10-16T02:06:27;57.71;48.67;65.31;;
75249;Laerm;63845;55.688;37.578;2022-10-16T02:08:53;55.85;49.09;67.37;;
75249;Laerm;63845;55.688;37.578;2022-10-16T02:11:18;61.51;48.46;70.13;;
75249;Laerm;63845;55.688;37.578;2022-10-16T02:13:48;59.17;51.38;69.61;;
75249;Laerm;63845;55.688;37.578;2022-10-16T02:16:16;56.66;51.68;69.57;;
75249;Laerm;63845;55.688;37.578;2022-10-16T02:18:42;61.11;51.55;72.59;;
75249;Laerm;63845;55.688;37.578;2022-10-16T02:21:25;57.79;51.11;70.56;;
75249;Laerm;63845;55.688;37.578;2022-10-16T02:26:43;59.60;52.62;69.89;;
75249;Laerm;63845;55.688;37.578;2022-10-16T02:29:13;59.77;52.93;71.84;;
75249;Laerm;63845;55.688;37.578;2022-10-16T02:31:45;59.10;53.59;65.10;;
75249;Laerm;63845;55.688;37.578;2022-10-16T02:34:13;58.83;52.98;67.31;;
75249;Laerm;63845;55.688;37.578;2022-10-16T02:36:41;59.48;53.23;74.29;;
75249;Laerm;63845;55.688;37.578;2022-10-16T02:39:07;58.36;49.70;69.57;;
75249;Laerm;63845;55.688;37.578;2022-10-16T02:41:33;58.90;49.25;65.15;;
75249;Laerm;63845;55.688;37.578;2022-10-16T02:43:59;58.94;53.40;65.40;;
75249;Laerm;63845;55.688;37.578;2022-10-16T02:46:24;58.47;53.03;62.33;;
75249;Laerm;63845;55.688;37.578;2022-10-16T02:48:50;60.30;55.39;65.07;;
75249;Laerm;63845;55.688;37.578;2022-10-16T02:51:15;59.18;53.89;67.49;;
75249;Laerm;63845;55.688;37.578;2022-10-16T02:53:43;57.78;51.06;64.51;;
75249;Laerm;63845;55.688;37.578;2022-10-16T02:56:08;59.31;52.14;64.53;;
75249;Laerm;63845;55.688;37.578;2022-10-16T02:58:34;57.98;51.18;63.61;;
75249;Laerm;63845;55.688;37.578;2022-10-16T03:00:59;57.75;53.31;70.14;;
75249;Laerm;63845;55.688;37.578;2022-10-16T03:03:25;58.20;53.09;67.40;;
75249;Laerm;63845;55.688;37.578;2022-10-16T03:05:50;59.79;53.18;65.75;;
75249;Laerm;63845;55.688;37.578;2022-10-16T03:08:15;58.83;52.51;68.71;;
75249;Laerm;63845;55.688;37.578;2022-10-16T03:10:41;57.74;49.03;64.26;;
75249;Laerm;63845;55.688;37.578;2022-10-16T03:13:06;58.59;51.78;65.94;;
75249;Laerm;63845;55.688;37.578;2022-10-16T03:15:32;61.65;52.30;67.10;;
75249;Laerm;63845;55.688;37.578;2022-10-16T03:17:58;60.03;52.55;70.33;;
75249;Laerm;63845;55.688;37.578;2022-10-16T03:20:24;58.85;53.39;63.16;;
75249;Laerm;63845;55.688;37.578;2022-10-16T03:22:50;57.74;50.13;64.86;;
75249;Laerm;63845;55.688;37.578;2022-10-16T03:25:15;58.07;52.39;65.14;;
75249;Laerm;63845;55.688;37.578;2022-10-16T03:27:41;58.30;52.49;66.97;;
75249;Laerm;63845;55.688;37.578;2022-10-16T03:30:07;57.62;49.92;67.36;;
75249;Laerm;63845;55.688;37.578;2022-10-16T03:32:32;56.60;50.18;63.83;;
75249;Laerm;63845;55.688;37.578;2022-10-16T03:34:58;56.88;49.75;62.47;;
75249;Laerm;63845;55.688;37.578;2022-10-16T03:37:23;59.13;50.62;67.44;;
75249;Laerm;63845;55.688;37.578;2022-10-16T03:39:49;58.51;51.98;69.67;;
75249;Laerm;63845;55.688;37.578;2022-10-16T03:42:14;57.48;51.03;66.07;;
75249;Laerm;63845;55.688;37.578;2022-10-16T03:44:39;57.09;49.83;65.98;;
75249;Laerm;63845;55.688;37.578;2022-10-16T03:47:05;57.30;51.33;62.61;;
75249;Laerm;63845;55.688;37.578;2022-10-16T03:49:30;59.42;52.79;65.82;;
75249;Laerm;63845;55.688;37.578;2022-10-16T03:51:55;59.73;51.04;69.55;;
75249;Laerm;63845;55.688;37.578;2022-10-16T03:54:21;59.31;52.16;68.29;;
75249;Laerm;63845;55.688;37.578;2022-10-16T03:56:47;60.19;52.09;67.27;;
75249;Laerm;63845;55.688;37.578;2022-10-16T03:59:13;63.22;53.76;78.01;;
75249;Laerm;63845;55.688;37.578;2022-10-16T04:01:38;59.57;53.17;66.63;;
75249;Laerm;63845;55.688;37.578;2022-10-16T04:04:04;59.09;53.17;64.42;;
75249;Laerm;63845;55.688;37.578;2022-10-16T04:06:29;59.80;52.57;66.13;;
75249;Laerm;63845;55.688;37.578;2022-10-16T04:08:55;57.18;52.22;64.29;;
75249;Laerm;63845;55.688;37.578;2022-10-16T04:11:20;57.66;52.63;63.42;;
75249;Laerm;63845;55.688;37.578;2022-10-16T04:14:03;58.21;52.10;64.08;;
75249;Laerm;63845;55.688;37.578;2022-10-16T04:16:28;62.82;52.67;74.34;;
75249;Laerm;63845;55.688;37.578;2022-10-16T04:18:53;64.40;55.17;72.66;;
75249;Laerm;63845;55.688;37.578;2022-10-16T04:21:24;61.14;54.65;73.14;;
75249;Laerm;63845;55.688;37.578;2022-10-16T04:23:57;57.96;52.03;65.53;;
75249;Laerm;63845;55.688;37.578;2022-10-16T04:26:22;59.83;51.79;67.60;;
75249;Laerm;63845;55.688;37.578;2022-10-16T04:28:48;60.03;51.70;75.63;;
75249;Laerm;63845;55.688;37.578;2022-10-16T04:31:13;60.31;52.91;68.39;;
75249;Laerm;63845;55.688;37.578;2022-10-16T04:33:42;60.30;54.04;67.30;;
75249;Laerm;63845;55.688;37.578;2022-10-16T04:36:08;60.26;51.18;67.32;;
75249;Laerm;63845;55.688;37.578;2022-10-16T04:38:33;60.01;51.97;68.21;;
75249;Laerm;63845;55.688;37.578;2022-10-16T04:40:59;59.96;52.05;66.19;;
75249;Laerm;63845;55.688;37.578;2022-10-16T04:43:25;59.12;53.02;64.40;;
75249;Laerm;63845;55.688;37.578;2022-10-16T04:45:51;60.33;55.04;66.65;;
75249;Laerm;63845;55.688;37.578;2022-10-16T04:48:17;61.59;56.91;72.63;;
75249;Laerm;63845;55.688;37.578;2022-10-16T04:50:43;61.97;55.56;82.41;;
75249;Laerm;63845;55.688;37.578;2022-10-16T04:53:08;62.44;57.41;74.21;;
75249;Laerm;63845;55.688;37.578;2022-10-16T04:55:34;62.71;56.64;71.43;;
75249;Laerm;63845;55.688;37.578;2022-10-16T04:58:00;60.94;56.91;65.82;;
75249;Laerm;63845;55.688;37.578;2022-10-16T05:00:25;61.20;56.75;76.88;;
75249;Laerm;63845;55.688;37.578;2022-10-16T05:02:51;61.80;56.55;72.06;;
75249;Laerm;63845;55.688;37.578;2022-10-16T05:05:17;62.04;56.28;70.11;;
75249;Laerm;63845;55.688;37.578;2022-10-16T05:07:45;61.43;56.14;68.70;;
75249;Laerm;63845;55.688;37.578;2022-10-16T05:10:10;61.89;56.60;69.46;;
75249;Laerm;63845;55.688;37.578;2022-10-16T05:12:35;61.31;55.68;68.81;;
75249;Laerm;63845;55.688;37.578;2022-10-16T05:15:01;62.35;56.47;68.73;;
75249;Laerm;63845;55.688;37.578;2022-10-16T05:17:26;63.17;58.89;72.01;;
75249;Laerm;63845;55.688;37.578;2022-10-16T05:19:52;62.13;56.67;65.90;;
75249;Laerm;63845;55.688;37.578;2022-10-16T05:22:17;62.16;56.78;69.97;;
75249;Laerm;63845;55.688;37.578;2022-10-16T05:24:43;63.90;57.21;74.28;;
75249;Laerm;63845;55.688;37.578;2022-10-16T05:27:09;63.49;58.64;67.92;;
75249;Laerm;63845;55.688;37.578;2022-10-16T05:29:35;65.15;59.26;73.54;;
75249;Laerm;63845;55.688;37.578;2022-10-16T05:32:01;64.21;58.09;72.96;;
75249;Laerm;63845;55.688;37.578;2022-10-16T05:34:26;64.44;57.95;77.79;;
75249;Laerm;63845;55.688;37.578;2022-10-16T05:36:52;63.12;57.57;71.45;;
75249;Laerm;63845;55.688;37.578;2022-10-16T05:39:17;64.12;59.04;77.69;;
75249;Laerm;63845;55.688;37.578;2022-10-16T05:41:43;64.08;58.77;74.56;;
75249;Laerm;63845;55.688;37.578;2022-10-16T05:44:09;64.40;59.96;73.03;;
75249;Laerm;63845;55.688;37.578;2022-10-16T05:46:35;64.39;60.11;72.90;;
75249;Laerm;63845;55.688;37.578;2022-10-16T05:49:00;64.18;59.25;70.38;;
75249;Laerm;63845;55.688;37.578;2022-10-16T05:51:26;65.05;59.48;78.72;;
75249;Laerm;63845;55.688;37.578;2022-10-16T05:53:51;64.49;59.40;75.39;;
75249;Laerm;63845;55.688;37.578;2022-10-16T05:56:17;62.17;57.43;73.01;;
75249;Laerm;63845;55.688;37.578;2022-10-16T05:58:43;62.68;58.10;68.29;;
75249;Laerm;63845;55.688;37.578;2022-10-16T06:01:15;63.41;57.12;70.55;;
75249;Laerm;63845;55.688;37.578;2022-10-16T06:03:41;63.96;58.13;74.27;;
75249;Laerm;63845;55.688;37.578;2022-10-16T06:06:19;64.73;59.06;79.14;;
75249;Laerm;63845;55.688;37.578;2022-10-16T06:08:46;65.48;58.54;72.80;;
75249;Laerm;63845;55.688;37.578;2022-10-16T06:11:22;62.82;58.91;71.03;;
75249;Laerm;63845;55.688;37.578;2022-10-16T06:13:52;65.73;57.73;85.44;;
75249;Laerm;63845;55.688;37.578;2022-10-16T06:16:17;66.50;58.61;86.95;;
75249;Laerm;63845;55.688;37.578;2022-10-16T06:18:43;69.37;60.63;92.45;;
75249;Laerm;63845;55.688;37.578;2022-10-16T06:21:16;68.14;58.32;89.95;;
75249;Laerm;63845;55.688;37.578;2022-10-16T06:23:42;66.91;59.44;88.16;;
75249;Laerm;63845;55.688;37.578;2022-10-16T06:26:12;69.56;57.88;94.38;;
75249;Laerm;63845;55.688;37.578;2022-10-16T06:28:39;69.99;56.72;91.89;;
75249;Laerm;63845;55.688;37.578;2022-10-16T06:31:05;71.61;59.56;104.19;;
75249;Laerm;63845;55.688;37.578;2022-10-16T06:33:31;68.97;59.41;88.34;;
75249;Laerm;63845;55.688;37.578;2022-10-16T06:36:14;68.24;60.17;86.69;;
75249;Laerm;63845;55.688;37.578;2022-10-16T06:38:44;70.70;60.54;98.05;;
75249;Laerm;63845;55.688;37.578;2022-10-16T06:41:12;65.77;60.61;76.89;;
75249;Laerm;63845;55.688;37.578;2022-10-16T06:43:38;67.17;59.63;95.01;;
75249;Laerm;63845;55.688;37.578;2022-10-16T06:46:05;72.47;58.40;100.13;;
75249;Laerm;63845;55.688;37.578;2022-10-16T06:48:33;65.11;58.12;70.39;;
75249;Laerm;63845;55.688;37.578;2022-10-16T06:51:05;63.77;58.37;69.29;;
75249;Laerm;63845;55.688;37.578;2022-10-16T06:53:38;65.10;58.08;80.73;;
75249;Laerm;63845;55.688;37.578;2022-10-16T06:56:22;69.88;57.87;97.86;;
75249;Laerm;63845;55.688;37.578;2022-10-16T06:58:49;68.39;59.43;94.29;;
75249;Laerm;63845;55.688;37.578;2022-10-16T07:01:16;67.18;59.84;91.83;;
75249;Laerm;63845;55.688;37.578;2022-10-16T07:03:45;67.45;60.06;76.13;;
75249;Laerm;63845;55.688;37.578;2022-10-16T07:06:13;65.29;58.71;73.38;;
75249;Laerm;63845;55.688;37.578;2022-10-16T07:08:41;65.79;59.33;76.35;;
75249;Laerm;63845;55.688;37.578;2022-10-16T07:11:24;65.71;58.38;77.44;;
75249;Laerm;63845;55.688;37.578;2022-10-16T07:14:14;64.72;58.61;71.97;;
75249;Laerm;63845;55.688;37.578;2022-10-16T07:17:40;65.35;59.74;77.20;;
75249;Laerm;63845;55.688;37.578;2022-10-16T07:21:16;64.43;58.56;75.13;;
75249;Laerm;63845;55.688;37.578;2022-10-16T07:23:42;64.67;59.43;76.30;;
75249;Laerm;63845;55.688;37.578;2022-10-16T07:26:21;65.44;60.34;81.60;;
75249;Laerm;63845;55.688;37.578;2022-10-16T07:29:18;65.07;60.49;80.82;;
75249;Laerm;63845;55.688;37.578;2022-10-16T07:31:44;65.50;60.31;83.42;;
75249;Laerm;63845;55.688;37.578;2022-10-16T07:34:11;65.96;60.35;75.54;;
75249;Laerm;63845;55.688;37.578;2022-10-16T07:36:37;65.05;59.46;84.25;;
75249;Laerm;63845;55.688;37.578;2022-10-16T07:39:03;64.43;59.38;73.32;;
75249;Laerm;63845;55.688;37.578;2022-10-16T07:41:28;65.22;60.17;71.02;;
75249;Laerm;63845;55.688;37.578;2022-10-16T07:43:55;65.23;59.98;69.42;;
75249;Laerm;63845;55.688;37.578;2022-10-16T07:46:25;64.36;58.17;69.21;;
75249;Laerm;63845;55.688;37.578;2022-10-16T07:48:51;63.22;58.09;69.57;;
75249;Laerm;63845;55.688;37.578;2022-10-16T07:51:18;63.96;57.45;69.35;;
75249;Laerm;63845;55.688;37.578;2022-10-16T07:53:45;64.35;57.16;72.83;;
75249;Laerm;63845;55.688;37.578;2022-10-16T07:56:11;64.92;59.42;71.38;;
75249;Laerm;63845;55.688;37.578;2022-10-16T07:58:40;65.10;59.42;75.07;;
75249;Laerm;63845;55.688;37.578;2022-10-16T08:01:08;65.43;59.78;71.06;;
75249;Laerm;63845;55.688;37.578;2022-10-16T08:03:33;66.48;60.46;72.72;;
75249;Laerm;63845;55.688;37.578;2022-10-16T08:06:00;65.60;58.16;71.12;;
75249;Laerm;63845;55.688;37.578;2022-10-16T08:08:26;66.30;61.22;74.42;;
75249;Laerm;63845;55.688;37.578;2022-10-16T08:10:52;65.90;59.00;70.26;;
75249;Laerm;63845;55.688;37.578;2022-10-16T08:13:17;65.84;59.29;73.02;;
75249;Laerm;63845;55.688;37.578;2022-10-16T08:15:43;64.43;57.61;69.05;;
75249;Laerm;63845;55.688;37.578;2022-10-16T08:18:10;65.68;57.16;81.06;;
75249;Laerm;63845;55.688;37.578;2022-10-16T08:20:45;64.69;59.30;72.69;;
75249;Laerm;63845;55.688;37.578;2022-10-16T08:23:12;64.42;57.69;72.43;;
75249;Laerm;63845;55.688;37.578;2022-10-16T08:25:38;65.56;56.79;71.72;;
75249;Laerm;63845;55.688;37.578;2022-10-16T08:28:05;65.70;60.00;82.50;;
75249;Laerm;63845;55.688;37.578;2022-10-16T08:30:31;65.13;58.92;76.58;;
75249;Laerm;63845;55.688;37.578;2022-10-16T08:32:57;64.07;57.68;76.62;;
75249;Laerm;63845;55.688;37.578;2022-10-16T08:35:23;66.37;61.15;73.96;;
75249;Laerm;63845;55.688;37.578;2022-10-16T08:37:49;63.77;57.45;76.57;;
75249;Laerm;63845;55.688;37.578;2022-10-16T08:40:18;65.45;56.05;72.25;;
75249;Laerm;63845;55.688;37.578;2022-10-16T08:46:03;63.90;58.66;73.11;;
75249;Laerm;63845;55.688;37.578;2022-10-16T08:51:08;66.18;60.16;77.63;;
75249;Laerm;63845;55.688;37.578;2022-10-16T08:53:49;64.41;57.37;70.15;;
75249;Laerm;63845;55.688;37.578;2022-10-16T08:56:17;67.01;56.36;81.74;;
75249;Laerm;63845;55.688;37.578;2022-10-16T08:58:45;62.79;56.32;80.07;;
75249;Laerm;63845;55.688;37.578;2022-10-16T09:01:14;62.76;58.14;71.40;;
75249;Laerm;63845;55.688;37.578;2022-10-16T09:07:09;64.32;57.71;77.43;;
75249;Laerm;63845;55.688;37.578;2022-10-16T09:15:37;63.30;57.48;79.58;;
75249;Laerm;63845;55.688;37.578;2022-10-16T09:23:38;63.38;57.21;75.82;;
75249;Laerm;63845;55.688;37.578;2022-10-16T09:26:05;63.03;56.30;72.21;;
75249;Laerm;63845;55.688;37.578;2022-10-16T09:28:34;62.50;54.56;71.18;;
75249;Laerm;63845;55.688;37.578;2022-10-16T09:30:59;63.54;54.61;86.53;;
75249;Laerm;63845;55.688;37.578;2022-10-16T09:33:29;63.01;54.73;78.87;;
75249;Laerm;63845;55.688;37.578;2022-10-16T09:35:58;62.84;55.92;70.07;;
75249;Laerm;63845;55.688;37.578;2022-10-16T09:38:27;63.26;55.27;69.41;;
75249;Laerm;63845;55.688;37.578;2022-10-16T09:40:55;63.57;55.81;74.24;;
75249;Laerm;63845;55.688;37.578;2022-10-16T09:43:27;63.23;55.44;71.41;;
75249;Laerm;63845;55.688;37.578;2022-10-16T09:45:57;64.35;57.56;79.71;;
75249;Laerm;63845;55.688;37.578;2022-10-16T09:48:25;65.06;55.76;87.36;;
75249;Laerm;63845;55.688;37.578;2022-10-16T09:50:57;62.81;56.58;81.79;;
75249;Laerm;63845;55.688;37.578;2022-10-16T09:53:23;63.42;56.90;79.69;;
75249;Laerm;63845;55.688;37.578;2022-10-16T09:55:50;64.39;57.64;83.50;;
75249;Laerm;63845;55.688;37.578;2022-10-16T09:58:16;64.36;55.19;79.37;;
75249;Laerm;63845;55.688;37.578;2022-10-16T10:00:48;62.56;54.23;73.97;;
75249;Laerm;63845;55.688;37.578;2022-10-16T10:03:35;65.54;55.11;87.79;;
75249;Laerm;63845;55.688;37.578;2022-10-16T10:06:25;65.37;54.98;83.84;;
75249;Laerm;63845;55.688;37.578;2022-10-16T10:08:55;62.73;55.69;75.06;;
75249;Laerm;63845;55.688;37.578;2022-10-16T10:11:50;63.50;57.06;72.23;;
75249;Laerm;63845;55.688;37.578;2022-10-16T10:14:26;65.55;58.17;83.32;;
75249;Laerm;63845;55.688;37.578;2022-10-16T10:17:09;66.49;59.30;85.07;;
75249;Laerm;63845;55.688;37.578;2022-10-16T10:19:51;64.68;56.76;79.27;;
75249;Laerm;63845;55.688;37.578;2022-10-16T10:22:22;66.63;58.30;83.95;;
75249;Laerm;63845;55.688;37.578;2022-10-16T10:27:35;66.16;57.92;83.17;;
75249;Laerm;63845;55.688;37.578;2022-10-16T10:30:15;66.42;56.45;84.42;;
75249;Laerm;63845;55.688;37.578;2022-10-16T10:32:53;65.30;57.11;83.38;;
75249;Laerm;63845;55.688;37.578;2022-10-16T10:35:43;66.91;58.06;85.98;;
75249;Laerm;63845;55.688;37.578;2022-10-16T10:52:43;65.70;60.30;83.35;;
75249;Laerm;63845;55.688;37.578;2022-10-16T10:55:19;66.01;60.00;81.08;;
75249;Laerm;63845;55.688;37.578;2022-10-16T11:01:09;66.17;59.52;81.78;;
75249;Laerm;63845;55.688;37.578;2022-10-16T11:06:40;67.91;59.77;88.73;;
75249;Laerm;63845;55.688;37.578;2022-10-16T11:11:40;66.60;59.17;85.62;;
75249;Laerm;63845;55.688;37.578;2022-10-16T11:14:14;66.57;59.85;86.21;;
75249;Laerm;63845;55.688;37.578;2022-10-16T11:16:56;65.30;58.55;80.24;;
75249;Laerm;63845;55.688;37.578;2022-10-16T11:19:48;66.35;58.02;84.30;;
75249;Laerm;63845;55.688;37.578;2022-10-16T11:22:19;68.27;58.75;83.67;;
75249;Laerm;63845;55.688;37.578;2022-10-16T11:25:33;68.17;58.51;85.47;;
75249;Laerm;63845;55.688;37.578;2022-10-16T11:27:43;67.56;59.45;83.37;;
75249;Laerm;63845;55.688;37.578;2022-10-16T11:30:22;65.43;59.63;87.09;;
75249;Laerm;63845;55.688;37.578;2022-10-16T11:33:32;66.11;58.16;88.08;;
75249;Laerm;63845;55.688;37.578;2022-10-16T11:36:06;65.12;60.43;79.32;;
75249;Laerm;63845;55.688;37.578;2022-10-16T11:38:43;64.61;58.58;78.84;;
75249;Laerm;63845;55.688;37.578;2022-10-16T11:46:36;65.01;59.18;72.32;;
75249;Laerm;63845;55.688;37.578;2022-10-16T11:49:11;64.58;59.60;76.01;;
75249;Laerm;63845;55.688;37.578;2022-10-16T11:51:43;65.08;60.57;73.75;;
75249;Laerm;63845;55.688;37.578;2022-10-16T11:54:30;65.92;58.72;75.34;;
75249;Laerm;63845;55.688;37.578;2022-10-16T11:57:02;66.18;61.00;79.74;;
75249;Laerm;63845;55.688;37.578;2022-10-16T11:59:41;65.60;59.41;73.68;;
75249;Laerm;63845;55.688;37.578;2022-10-16T12:05:12;64.70;60.09;76.08;;
75249;Laerm;63845;55.688;37.578;2022-10-16T12:07:49;64.86;59.51;74.71;;
75249;Laerm;63845;55.688;37.578;2022-10-16T12:10:25;64.60;57.97;75.99;;
75249;Laerm;63845;55.688;37.578;2022-10-16T12:12:51;64.38;58.19;74.71;;
75249;Laerm;63845;55.688;37.578;2022-10-16T12:15:28;65.44;58.44;89.06;;
75249;Laerm;63845;55.688;37.578;2022-10-16T12:17:54;67.85;58.94;91.15;;
75249;Laerm;63845;55.688;37.578;2022-10-16T12:20:31;63.88;59.31;69.33;;
75249;Laerm;63845;55.688;37.578;2022-10-16T12:23:04;64.82;58.56;81.48;;
75249;Laerm;63845;55.688;37.578;2022-10-16T12:25:35;66.33;60.53;87.35;;
75249;Laerm;63845;55.688;37.578;2022-10-16T12:28:15;64.72;60.99;74.07;;
75249;Laerm;63845;55.688;37.578;2022-10-16T12:30:43;69.34;59.80;90.03;;
75249;Laerm;63845;55.688;37.578;2022-10-16T12:33:29;64.96;59.67;76.39;;
75249;Laerm;63845;55.688;37.578;2022-10-16T12:35:56;64.93;58.24;87.51;;
75249;Laerm;63845;55.688;37.578;2022-10-16T12:41:08;63.63;57.10;75.63;;
75249;Laerm;63845;55.688;37.578;2022-10-16T12:43:45;64.27;58.01;73.87;;
75249;Laerm;63845;55.688;37.578;2022-10-16T12:48:42;64.39;59.01;80.34;;
75249;Laerm;63845;55.688;37.578;2022-10-16T12:51:35;62.54;57.15;73.16;;
75249;Laerm;63845;55.688;37.578;2022-10-16T12:56:41;64.54;58.54;74.12;;
75249;Laerm;63845;55.688;37.578;2022-10-16T13:10:15;64.21;58.57;70.41;;
75249;Laerm;63845;55.688;37.578;2022-10-16T13:15:16;63.69;57.72;72.26;;
75249;Laerm;63845;55.688;37.578;2022-10-16T13:23:38;63.92;58.18;74.01;;
75249;Laerm;63845;55.688;37.578;2022-10-16T13:26:34;64.21;58.20;73.54;;
75249;Laerm;63845;55.688;37.578;2022-10-16T13:29:01;63.11;58.28;68.12;;
75249;Laerm;63845;55.688;37.578;2022-10-16T13:31:28;63.25;55.87;73.70;;
75249;Laerm;63845;55.688;37.578;2022-10-16T13:33:57;65.56;59.44;81.09;;
75249;Laerm;63845;55.688;37.578;2022-10-16T13:36:51;63.90;58.90;77.63;;
75249;Laerm;63845;55.688;37.578;2022-10-16T13:39:26;63.50;58.35;70.68;;
75249;Laerm;63845;55.688;37.578;2022-10-16T13:42:03;63.23;57.40;83.04;;
75249;Laerm;63845;55.688;37.578;2022-10-16T13:44:35;62.69;57.47;72.28;;
75249;Laerm;63845;55.688;37.578;2022-10-16T13:47:02;63.84;58.74;68.97;;
75249;Laerm;63845;55.688;37.578;2022-10-16T13:49:27;63.88;59.57;68.18;;
75249;Laerm;63845;55.688;37.578;2022-10-16T13:51:57;63.71;59.87;73.08;;
75249;Laerm;63845;55.688;37.578;2022-10-16T13:54:23;63.51;58.06;68.99;;
75249;Laerm;63845;55.688;37.578;2022-10-16T13:56:49;64.60;59.26;75.45;;
75249;Laerm;63845;55.688;37.578;2022-10-16T13:59:34;64.61;59.13;68.83;;
75249;Laerm;63845;55.688;37.578;2022-10-16T14:04:44;64.33;60.08;73.87;;
75249;Laerm;63845;55.688;37.578;2022-10-16T14:07:14;64.47;60.35;68.22;;
75249;Laerm;63845;55.688;37.578;2022-10-16T14:09:48;64.53;58.63;74.74;;
75249;Laerm;63845;55.688;37.578;2022-10-16T14:12:15;65.36;60.53;71.05;;
75249;Laerm;63845;55.688;37.578;2022-10-16T14:14:43;64.11;58.09;76.00;;
75249;Laerm;63845;55.688;37.578;2022-10-16T14:17:18;65.37;60.89;72.99;;
75249;Laerm;63845;55.688;37.578;2022-10-16T14:19:46;64.34;59.34;76.61;;
75249;Laerm;63845;55.688;37.578;2022-10-16T14:22:37;64.27;58.24;76.43;;
75249;Laerm;63845;55.688;37.578;2022-10-16T14:25:23;64.20;59.75;73.18;;
75249;Laerm;63845;55.688;37.578;2022-10-16T14:30:23;64.47;58.26;77.25;;
75249;Laerm;63845;55.688;37.578;2022-10-16T14:33:00;63.04;58.09;69.01;;
75249;Laerm;63845;55.688;37.578;2022-10-16T14:35:35;64.69;58.89;73.52;;
75249;Laerm;63845;55.688;37.578;2022-10-16T14:38:03;64.47;59.17;75.35;;
75249;Laerm;63845;55.688;37.578;2022-10-16T14:40:34;64.79;61.29;71.96;;
75249;Laerm;63845;55.688;37.578;2022-10-16T14:43:01;64.87;59.52;72.32;;
75249;Laerm;63845;55.688;37.578;2022-10-16T14:45:29;65.00;61.12;70.90;;
75249;Laerm;63845;55.688;37.578;2022-10-16T14:47:57;64.95;57.64;73.88;;
75249;Laerm;63845;55.688;37.578;2022-10-16T14:50:24;64.46;56.97;74.27;;
75249;Laerm;63845;55.688;37.578;2022-10-16T14:52:49;64.45;59.58;69.30;;
75249;Laerm;63845;55.688;37.578;2022-10-16T14:55:15;64.29;61.01;69.43;;
75249;Laerm;63845;55.688;37.578;2022-10-16T14:57:42;65.21;58.60;77.77;;
75249;Laerm;63845;55.688;37.578;2022-10-16T15:00:22;64.34;59.05;69.81;;
75249;Laerm;63845;55.688;37.578;2022-10-16T15:02:49;64.61;57.90;73.52;;
75249;Laerm;63845;55.688;37.578;2022-10-16T15:05:23;64.60;58.85;74.88;;
75249;Laerm;63845;55.688;37.578;2022-10-16T15:07:50;63.97;59.14;69.41;;
75249;Laerm;63845;55.688;37.578;2022-10-16T15:10:17;64.33;58.72;72.21;;
75249;Laerm;63845;55.688;37.578;2022-10-16T15:12:42;63.65;58.60;67.68;;
75249;Laerm;63845;55.688;37.578;2022-10-16T15:17:54;64.66;58.26;71.66;;
75249;Laerm;63845;55.688;37.578;2022-10-16T15:20:31;65.60;58.91;80.18;;
75249;Laerm;63845;55.688;37.578;2022-10-16T15:23:03;65.31;58.87;69.57;;
75249;Laerm;63845;55.688;37.578;2022-10-16T15:25:32;65.93;58.45;75.68;;
75249;Laerm;63845;55.688;37.578;2022-10-16T15:28:00;65.43;59.74;72.85;;
75249;Laerm;63845;55.688;37.578;2022-10-16T15:30:26;64.84;58.49;69.98;;
75249;Laerm;63845;55.688;37.578;2022-10-16T15:32:52;65.02;57.05;75.46;;
75249;Laerm;63845;55.688;37.578;2022-10-16T15:35:17;65.28;59.53;75.28;;
75249;Laerm;63845;55.688;37.578;2022-10-16T15:37:43;63.87;58.70;75.42;;
75249;Laerm;63845;55.688;37.578;2022-10-16T15:40:10;64.34;59.37;70.09;;